Time;durP1;ratioP1;P1;durP2;ratioP2;P2;SDS_P1;SDS_P2;PMS_P1;PMS_P2;Temp;Humidity;BMP_temperature;BMP_pressure;BME280_temperature;BME280_humidity;BME280_pressure;Samples;Min_cycle;Max_cycle;Signal;HPM_P1;HPM_P2
2023/04/04 00:00:10;;;;;;;;;;;;;;;30.12;24.25;100035.34;5075896;28;1198;-33
2023/04/04 00:02:36;;;;;;;;;;;;;;;30.36;24.17;100024.75;5069617;28;1965;-30
2023/04/04 00:05:02;;;;;;;;;;;;;;;30.60;23.59;100003.22;5068984;28;1150;-29
2023/04/04 00:07:27;;;;;;;;;;;;;;;31.05;23.03;99984.97;5075652;28;1122;-32
2023/04/04 00:09:53;;;;;;;;;;;;;;;31.21;22.84;99982.69;5062774;28;1031;-30
2023/04/04 00:12:18;;;;;;;;;;;;;;;30.63;23.32;99975.63;5069277;28;1036;-32
2023/04/04 00:14:44;;;;;;;;;;;;;;;29.06;25.36;99968.88;5055768;28;1131;-28
2023/04/04 00:17:10;;;;;;;;;;;;;;;30.38;24.01;99968.38;5075138;28;1043;-28
2023/04/04 00:19:35;;;;;;;;;;;;;;;30.82;23.25;99953.09;5075364;28;1115;-31
2023/04/04 00:22:01;;;;;;;;;;;;;;;31.01;23.26;99952.00;5062371;28;1898;-28
2023/04/04 00:24:26;;;;;;;;;;;;;;;30.93;22.88;99949.59;5075514;28;1043;-31
2023/04/04 00:26:52;;;;;;;;;;;;;;;30.15;24.06;99952.69;5075418;28;1502;-30
2023/04/04 00:29:18;;;;;;;;;;;;;;;30.23;24.14;99954.34;5075928;28;1042;-33
2023/04/04 00:31:43;;;;;;;;;;;;;;;30.79;23.22;99947.06;5057154;28;1159;-27
2023/04/04 00:34:09;;;;;;;;;;;;;;;31.09;22.85;99929.16;5045251;28;1067;-27
2023/04/04 00:36:35;;;;;;;;;;;;;;;31.21;22.82;99922.91;5075408;28;1135;-34
2023/04/04 00:39:00;;;;;;;;;;;;;;;31.22;22.73;99930.84;5075440;28;1031;-28
2023/04/04 00:41:26;;;;;;;;;;;;;;;31.05;22.76;99919.78;5075553;28;1139;-32
2023/04/04 00:43:51;;;;;;;;;;;;;;;29.42;25.03;99913.22;5075188;28;1967;-31
2023/04/04 00:46:18;;;;;;;;;;;;;;;30.23;24.12;99900.91;5047696;28;1138;-30
2023/04/04 00:48:44;;;;;;;;;;;;;;;30.79;23.20;99900.91;5061317;28;1110;-28
2023/04/04 00:51:10;;;;;;;;;;;;;;;31.07;22.87;99889.69;5061259;28;1340;-32
2023/04/04 00:53:37;;;;;;;;;;;;;;;31.21;22.84;99885.72;5060968;28;1028;-30
2023/04/04 00:56:02;;;;;;;;;;;;;;;29.93;24.05;99879.88;5078273;28;1023;-30
2023/04/04 00:58:28;;;;;;;;;;;;;;;30.21;23.87;99880.50;5061152;28;1119;-32
2023/04/04 01:00:53;;;;;;;;;;;;;;;30.45;23.65;99873.31;5078993;28;1066;-29
2023/04/04 01:03:19;;;;;;;;;;;;;;;30.60;23.53;99863.94;5061393;28;1913;-31
2023/04/04 01:05:44;;;;;;;;;;;;;;;30.79;23.37;99860.16;5060643;28;1142;-28
2023/04/04 01:08:10;;;;;;;;;;;;;;;31.26;22.48;99864.09;5060426;28;1110;-32
2023/04/04 01:10:36;;;;;;;;;;;;;;;30.19;23.66;99850.84;5060745;28;1158;-32
2023/04/04 01:13:02;;;;;;;;;;;;;;;29.27;24.97;99835.00;5060863;28;1406;-32
2023/04/04 01:15:28;;;;;;;;;;;;;;;30.49;23.92;99822.13;5060948;28;1198;-31
2023/04/04 01:17:54;;;;;;;;;;;;;;;31.12;22.87;99836.31;5060852;28;1356;-30
2023/04/04 01:20:21;;;;;;;;;;;;;;;29.73;24.37;99823.97;5060311;28;1175;-32
2023/04/04 01:22:50;;;;;;;;;;;;;;;29.79;24.21;99825.81;5060602;28;1910;-29
2023/04/04 01:25:18;;;;;;;;;;;;;;;30.17;24.08;99823.13;5044386;28;1219;-29
2023/04/04 01:27:49;;;;;;;;;;;;;;;30.26;24.09;99831.81;5060567;28;1426;-31
2023/04/04 01:30:16;;;;;;;;;;;;;;;30.63;23.46;99831.75;5078223;28;1070;-30
2023/04/04 01:32:43;;;;;;;;;;;;;;;31.09;22.83;99828.66;5050352;28;1131;-33
2023/04/04 01:35:19;;;;;;;;;;;;;;;31.19;22.97;99806.34;5058428;28;1119;-32
2023/04/04 01:38:04;;;;;;;;;;;;;;;29.56;24.82;99804.75;5075819;28;1056;-31
2023/04/04 01:40:34;;;;;;;;;;;;;;;30.05;24.26;99807.59;5078275;28;1154;-28
2023/04/04 01:43:00;;;;;;;;;;;;;;;30.94;23.31;99811.94;5041671;28;1973;-30
2023/04/04 01:45:28;;;;;;;;;;;;;;;31.15;22.95;99800.53;5040559;28;1094;-31
2023/04/04 01:47:57;;;;;;;;;;;;;;;30.56;23.23;99801.19;5045347;28;1230;-33
2023/04/04 01:50:23;;;;;;;;;;;;;;;30.34;24.00;99785.38;5039414;28;1358;-30
2023/04/04 01:52:48;;;;;;;;;;;;;;;30.47;23.78;99786.25;5039757;28;1439;-31
2023/04/04 01:55:15;;;;;;;;;;;;;;;30.84;23.29;99761.75;5039536;28;1303;-32
2023/04/04 01:57:40;;;;;;;;;;;;;;;31.06;22.77;99774.78;5070170;28;853;-32
2023/04/04 02:00:06;;;;;;;;;;;;;;;31.20;22.74;99752.84;5060144;28;1169;-31
2023/04/04 02:02:41;;;;;;;;;;;;;;;30.27;24.02;99728.50;5077594;28;1902;-31
2023/04/04 02:05:07;;;;;;;;;;;;;;;30.06;24.08;99713.53;5046140;28;1142;-28
2023/04/04 02:07:33;;;;;;;;;;;;;;;30.40;23.75;99697.66;5077774;28;1158;-31
2023/04/04 02:10:00;;;;;;;;;;;;;;;30.59;23.38;99704.88;5059205;28;1303;-30
2023/04/04 02:12:26;;;;;;;;;;;;;;;30.94;23.19;99706.03;5077788;28;1091;-28
2023/04/04 02:14:52;;;;;;;;;;;;;;;31.18;22.61;99706.88;5077562;28;1134;-33
2023/04/04 02:17:18;;;;;;;;;;;;;;;29.93;24.04;99700.94;5059671;28;1130;-33
2023/04/04 02:19:43;;;;;;;;;;;;;;;29.32;25.28;99679.94;5059152;28;1225;-34
2023/04/04 02:22:09;;;;;;;;;;;;;;;30.74;23.24;99688.16;5076399;28;1902;-31
2023/04/04 02:24:35;;;;;;;;;;;;;;;31.23;22.54;99690.69;5077126;28;1364;-31
2023/04/04 02:27:00;;;;;;;;;;;;;;;29.84;24.00;99695.03;5077059;28;1269;-34
2023/04/04 02:29:26;;;;;;;;;;;;;;;29.50;24.60;99702.66;5077198;28;1135;-29
2023/04/04 02:31:52;;;;;;;;;;;;;;;30.38;23.61;99696.22;5077220;28;1142;-30
2023/04/04 02:34:18;;;;;;;;;;;;;;;30.57;23.10;99705.13;5076884;28;964;-31
2023/04/04 02:36:44;;;;;;;;;;;;;;;30.92;22.71;99695.41;5059165;28;1185;-30
2023/04/04 02:39:10;;;;;;;;;;;;;;;31.29;22.53;99699.78;5058844;28;1396;-30
2023/04/04 02:41:38;;;;;;;;;;;;;;;29.71;24.31;99685.19;5059204;28;1138;-33
2023/04/04 02:44:03;;;;;;;;;;;;;;;29.63;24.83;99686.28;5042592;28;1914;-30
2023/04/04 02:46:30;;;;;;;;;;;;;;;30.88;22.98;99686.91;5039128;28;1337;-32
2023/04/04 02:49:02;;;;;;;;;;;;;;;30.40;23.01;99685.94;5056589;28;1214;-33
2023/04/04 02:51:30;;;;;;;;;;;;;;;30.12;23.90;99671.94;5038696;28;1293;-30
2023/04/04 02:53:56;;;;;;;;;;;;;;;30.17;23.98;99672.06;5056219;28;1321;-29
2023/04/04 02:56:28;;;;;;;;;;;;;;;30.37;23.67;99683.72;5058965;28;1343;-32
2023/04/04 02:58:53;;;;;;;;;;;;;;;30.48;23.61;99677.47;5058827;28;1185;-33
2023/04/04 03:01:19;;;;;;;;;;;;;;;31.03;22.75;99685.63;5056858;28;1099;-33
2023/04/04 03:03:45;;;;;;;;;;;;;;;29.68;24.22;99681.03;5056347;28;1906;-32
2023/04/04 03:06:11;;;;;;;;;;;;;;;29.74;24.51;99673.03;5076752;28;1145;-29
2023/04/04 03:08:37;;;;;;;;;;;;;;;30.61;23.44;99660.19;5058191;28;1201;-28
2023/04/04 03:11:03;;;;;;;;;;;;;;;31.00;22.75;99664.34;5047592;28;1352;-28
2023/04/04 03:13:29;;;;;;;;;;;;;;;29.96;23.99;99654.41;5060916;28;1116;-31
2023/04/04 03:15:58;;;;;;;;;;;;;;;29.33;24.89;99646.34;5076307;28;1059;-33
2023/04/04 03:18:26;;;;;;;;;;;;;;;30.33;23.72;99653.50;5058017;28;1287;-32
2023/04/04 03:20:52;;;;;;;;;;;;;;;30.71;23.11;99646.03;5057997;28;1130;-29
2023/04/04 03:23:17;;;;;;;;;;;;;;;30.82;22.92;99640.84;5038438;28;1914;-30
2023/04/04 03:25:43;;;;;;;;;;;;;;;29.26;24.77;99635.59;5051788;28;1122;-30
2023/04/04 03:28:08;;;;;;;;;;;;;;;29.96;24.14;99632.72;5076187;28;1145;-31
2023/04/04 03:30:34;;;;;;;;;;;;;;;30.79;23.04;99639.44;5076068;28;1139;-29
2023/04/04 03:33:02;;;;;;;;;;;;;;;31.03;22.69;99645.72;5039313;28;1150;-29
2023/04/04 03:35:28;;;;;;;;;;;;;;;29.64;24.28;99633.75;5055976;28;1234;-30
2023/04/04 03:37:55;;;;;;;;;;;;;;;29.50;24.71;99635.75;5055936;28;1242;-34
2023/04/04 03:40:20;;;;;;;;;;;;;;;30.23;23.54;99636.97;5064341;28;1230;-27
2023/04/04 03:42:46;;;;;;;;;;;;;;;30.41;23.25;99642.31;5075620;28;1906;-28
2023/04/04 03:45:17;;;;;;;;;;;;;;;30.63;22.92;99666.19;5054686;28;1396;-29
2023/04/04 03:47:43;;;;;;;;;;;;;;;30.25;23.07;99678.25;5055525;28;1274;-29
2023/04/04 03:50:09;;;;;;;;;;;;;;;30.01;23.40;99659.16;5054501;28;1273;-28
2023/04/04 03:52:39;;;;;;;;;;;;;;;28.36;23.86;99677.13;5037877;28;1342;-29
2023/04/04 03:55:06;;;;;;;;;;;;;;;28.23;25.24;99678.00;5057027;28;1255;-30
2023/04/04 03:57:31;;;;;;;;;;;;;;;30.62;22.39;99688.97;5074227;28;1088;-27
2023/04/04 03:59:57;;;;;;;;;;;;;;;29.48;23.14;99691.25;5041304;28;1223;-29
2023/04/04 04:02:23;;;;;;;;;;;;;;;28.35;24.23;99697.13;5056698;28;1902;-27
2023/04/04 04:04:50;;;;;;;;;;;;;;;29.51;23.70;99723.31;5041817;28;1486;-29
2023/04/04 04:07:15;;;;;;;;;;;;;;;29.47;22.66;99712.06;5068454;28;1481;-28
2023/04/04 04:09:41;;;;;;;;;;;;;;;27.00;25.28;99700.97;5074551;28;916;-28
2023/04/04 04:12:06;;;;;;;;;;;;;;;27.27;25.44;99689.34;5074400;28;1023;-30
2023/04/04 04:14:32;;;;;;;;;;;;;;;26.81;25.84;99691.00;5037767;28;1614;-32
2023/04/04 04:17:01;;;;;;;;;;;;;;;26.43;26.30;99682.44;5041850;28;1286;-29
2023/04/04 04:19:26;;;;;;;;;;;;;;;26.36;26.45;99668.94;5073833;28;1441;-29
2023/04/04 04:21:52;;;;;;;;;;;;;;;26.36;26.47;99655.44;5072000;28;999;-30
2023/04/04 04:24:17;;;;;;;;;;;;;;;27.53;25.26;99649.78;5072656;28;1971;-30
2023/04/04 04:26:43;;;;;;;;;;;;;;;27.98;24.26;99637.38;5055185;28;1231;-31
2023/04/04 04:29:10;;;;;;;;;;;;;;;27.95;24.05;99614.31;5061592;28;1444;-30
2023/04/04 04:31:36;;;;;;;;;;;;;;;26.62;25.68;99608.00;5079549;28;1083;-33
2023/04/04 04:34:04;;;;;;;;;;;;;;;26.03;26.73;99596.88;5079316;28;1003;-29
2023/04/04 04:36:30;;;;;;;;;;;;;;;27.44;24.81;99600.59;5048592;28;1107;-32
2023/04/04 04:39:15;;;;;;;;;;;;;;;28.03;23.88;99624.03;5065915;28;1258;-30
2023/04/04 04:41:54;;;;;;;;;;;;;;;26.86;25.25;99546.31;5056791;28;1292;-31
2023/04/04 04:44:21;;;;;;;;;;;;;;;26.71;25.81;99570.81;5053174;28;1987;-31
2023/04/04 04:46:47;;;;;;;;;;;;;;;27.34;25.03;99513.81;5051472;28;1147;-30
2023/04/04 04:49:15;;;;;;;;;;;;;;;27.64;24.76;99502.44;5076015;28;1067;-32
2023/04/04 04:51:42;;;;;;;;;;;;;;;28.08;24.11;99490.94;5061261;28;1344;-29
2023/04/04 04:54:09;;;;;;;;;;;;;;;27.37;24.98;99491.78;5048421;28;1634;-31
2023/04/04 04:56:37;;;;;;;;;;;;;;;26.74;25.95;99523.72;5050148;28;1107;-30
2023/04/04 04:59:07;;;;;;;;;;;;;;;27.67;25.13;99545.22;5058711;28;1447;-29
2023/04/04 05:01:35;;;;;;;;;;;;;;;27.97;24.74;99587.91;5061060;28;1307;-28
2023/04/04 05:04:02;;;;;;;;;;;;;;;27.71;24.78;99610.50;5071372;28;1914;-30
2023/04/04 05:06:39;;;;;;;;;;;;;;;26.90;26.46;99657.38;5060843;28;1420;-33
2023/04/04 05:09:07;;;;;;;;;;;;;;;27.38;25.63;99671.66;5061296;28;1186;-29
2023/04/04 05:11:36;;;;;;;;;;;;;;;27.74;25.53;99701.94;5063672;28;1148;-31
2023/04/04 05:14:02;;;;;;;;;;;;;;;27.96;25.13;99713.28;5060724;28;1350;-29
2023/04/04 05:16:34;;;;;;;;;;;;;;;27.61;25.75;99732.50;5060659;28;1433;-30
2023/04/04 05:19:01;;;;;;;;;;;;;;;26.63;26.78;99733.72;5069248;28;1141;-31
2023/04/04 05:21:28;;;;;;;;;;;;;;;27.58;25.84;99731.03;5055091;28;1529;-28
2023/04/04 05:23:57;;;;;;;;;;;;;;;27.85;25.46;99741.81;5051929;28;1910;-31
2023/04/04 05:26:23;;;;;;;;;;;;;;;27.79;25.77;99744.53;5055439;28;1650;-31
2023/04/04 05:28:52;;;;;;;;;;;;;;;27.09;26.59;99743.97;5060606;28;1201;-29
2023/04/04 05:31:20;;;;;;;;;;;;;;;27.08;26.62;99756.63;5063555;28;1259;-31
2023/04/04 05:33:47;;;;;;;;;;;;;;;28.01;25.33;99744.25;5060359;28;1214;-33
2023/04/04 05:36:32;;;;;;;;;;;;;;;27.69;25.98;99750.38;5054444;28;1330;-31
2023/04/04 05:39:06;;;;;;;;;;;;;;;26.73;27.36;99732.47;5037399;28;1290;-31
2023/04/04 05:41:36;;;;;;;;;;;;;;;27.53;26.90;99722.72;5060304;28;1332;-30
2023/04/04 05:44:10;;;;;;;;;;;;;;;28.17;25.30;99713.19;5076045;28;1999;-29
2023/04/04 05:46:36;;;;;;;;;;;;;;;27.54;25.64;99701.97;5074832;28;1118;-28
2023/04/04 05:49:02;;;;;;;;;;;;;;;26.83;26.88;99713.19;5060017;28;1303;-31
2023/04/04 05:51:29;;;;;;;;;;;;;;;27.69;26.01;99702.59;5059726;28;2077;-31
2023/04/04 05:54:08;;;;;;;;;;;;;;;28.02;25.33;99714.31;5060178;28;1261;-30
2023/04/04 05:56:35;;;;;;;;;;;;;;;27.53;25.43;99703.81;5059359;28;1410;-31
2023/04/04 05:59:04;;;;;;;;;;;;;;;26.85;26.79;99713.81;5046414;28;1217;-34
2023/04/04 06:01:33;;;;;;;;;;;;;;;27.65;26.34;99712.09;5028515;28;1304;-28
2023/04/04 06:04:05;;;;;;;;;;;;;;;28.16;25.87;99704.25;5020084;28;1915;-32
2023/04/04 06:06:32;;;;;;;;;;;;;;;27.69;25.43;99702.59;5016837;28;1032;-30
2023/04/04 06:08:58;;;;;;;;;;;;;;;26.93;27.36;99701.97;5037813;28;1096;-32
2023/04/04 06:11:23;;;;;;;;;;;;;;;27.31;27.66;99674.38;5034980;28;1228;-32
2023/04/04 06:13:52;;;;;;;;;;;;;;;28.01;26.25;99677.50;5016496;28;1401;-33
2023/04/04 06:16:20;;;;;;;;;;;;;;;27.83;25.34;99678.19;5031712;28;1114;-34
2023/04/04 06:18:46;;;;;;;;;;;;;;;27.07;27.00;99671.28;5016882;28;1168;-28
2023/04/04 06:21:12;;;;;;;;;;;;;;;27.20;27.34;99680.41;5028617;28;1147;-32
2023/04/04 06:23:39;;;;;;;;;;;;;;;27.90;26.24;99679.00;5026967;28;1913;-30
2023/04/04 06:26:05;;;;;;;;;;;;;;;28.05;25.67;99694.94;5029716;28;1150;-29
2023/04/04 06:28:31;;;;;;;;;;;;;;;27.77;24.96;99687.16;5002782;28;1115;-31
2023/04/04 06:30:57;;;;;;;;;;;;;;;27.45;26.44;99680.56;5032685;28;1315;-32
2023/04/04 06:33:29;;;;;;;;;;;;;;;27.66;26.16;99670.53;5033009;28;1210;-33
2023/04/04 06:35:55;;;;;;;;;;;;;;;28.14;25.56;99673.91;5030941;28;1131;-29
2023/04/04 06:38:21;;;;;;;;;;;;;;;27.74;25.12;99661.41;5026099;28;1209;-30
2023/04/04 06:40:47;;;;;;;;;;;;;;;26.76;27.23;99659.22;5035780;28;1547;-29
2023/04/04 06:43:14;;;;;;;;;;;;;;;27.50;26.50;99651.06;5035207;28;1909;-34
2023/04/04 06:45:43;;;;;;;;;;;;;;;28.00;25.60;99662.31;5035916;28;1519;-30
2023/04/04 06:48:09;;;;;;;;;;;;;;;28.38;25.29;99651.75;5032190;28;1082;-30
2023/04/04 06:50:36;;;;;;;;;;;;;;;27.60;25.83;99634.41;5031882;28;1088;-33
2023/04/04 06:53:05;;;;;;;;;;;;;;;26.90;27.08;99633.06;5022750;28;1369;-38
2023/04/04 06:55:31;;;;;;;;;;;;;;;27.81;25.92;99642.47;5037029;28;1174;-30
2023/04/04 06:57:57;;;;;;;;;;;;;;;28.30;25.52;99612.22;5037039;28;1187;-30
2023/04/04 07:00:23;;;;;;;;;;;;;;;27.68;25.17;99608.19;5045189;28;1099;-31
2023/04/04 07:02:49;;;;;;;;;;;;;;;27.22;26.25;99587.38;5058122;28;1888;-32
2023/04/04 07:05:16;;;;;;;;;;;;;;;28.11;25.25;99575.13;5077018;28;1059;-29
2023/04/04 07:07:43;;;;;;;;;;;;;;;28.42;25.36;99558.28;5063481;28;1166;-33
2023/04/04 07:10:08;;;;;;;;;;;;;;;27.94;25.56;99561.31;5068822;28;1140;-31
2023/04/04 07:12:34;;;;;;;;;;;;;;;27.17;27.05;99552.09;5073783;28;944;-32
2023/04/04 07:15:00;;;;;;;;;;;;;;;27.22;27.34;99554.16;5076337;28;1201;-31
2023/04/04 07:17:26;;;;;;;;;;;;;;;28.32;26.50;99569.56;5067962;28;1222;-32
2023/04/04 07:19:51;;;;;;;;;;;;;;;27.89;26.22;99582.78;5067355;28;1166;-30
2023/04/04 07:22:17;;;;;;;;;;;;;;;27.13;28.31;99591.34;5057403;28;1965;-31
2023/04/04 07:24:43;;;;;;;;;;;;;;;27.47;28.39;99619.09;5067463;28;1009;-32
2023/04/04 07:27:10;;;;;;;;;;;;;;;28.17;27.02;99623.97;5055505;28;1168;-29
2023/04/04 07:29:35;;;;;;;;;;;;;;;28.03;26.17;99607.03;5064922;28;1189;-27
2023/04/04 07:32:01;;;;;;;;;;;;;;;27.24;27.99;99603.38;5068054;28;1348;-30
2023/04/04 07:34:28;;;;;;;;;;;;;;;27.68;27.10;99602.78;5067046;28;917;-36
2023/04/04 07:36:54;;;;;;;;;;;;;;;28.15;26.17;99586.34;5059118;28;922;-34
2023/04/04 07:39:19;;;;;;;;;;;;;;;28.42;25.42;99578.06;5061867;28;1261;-33
2023/04/04 07:41:45;;;;;;;;;;;;;;;27.23;27.16;99555.78;5064616;28;1146;-30
2023/04/04 07:44:11;;;;;;;;;;;;;;;26.64;28.23;99561.94;5076022;28;2043;-30
2023/04/04 07:46:37;;;;;;;;;;;;;;;27.28;26.72;99549.78;5076168;28;1063;-29
2023/04/04 07:49:02;;;;;;;;;;;;;;;26.61;27.88;99536.19;5075398;28;961;-28
2023/04/04 07:51:29;;;;;;;;;;;;;;;27.29;26.44;99540.63;5064385;28;1042;-31
2023/04/04 07:53:55;;;;;;;;;;;;;;;27.60;26.04;99545.25;5056568;28;1301;-32
2023/04/04 07:56:21;;;;;;;;;;;;;;;27.54;26.09;99564.19;5073643;28;1062;-32
2023/04/04 07:58:46;;;;;;;;;;;;;;;27.57;26.24;99570.00;5076575;28;1165;-30
2023/04/04 08:01:12;;;;;;;;;;;;;;;27.43;26.68;99569.22;5069324;28;967;-31
2023/04/04 08:03:37;;;;;;;;;;;;;;;27.46;26.65;99568.78;5066993;28;1983;-30
2023/04/04 08:06:03;;;;;;;;;;;;;;;27.34;26.63;99560.53;5063890;28;1234;-30
2023/04/04 08:08:29;;;;;;;;;;;;;;;27.30;26.72;99566.56;5060126;28;1103;-32
2023/04/04 08:10:54;;;;;;;;;;;;;;;27.31;26.35;99558.25;5062828;28;1151;-31
2023/04/04 08:13:20;;;;;;;;;;;;;;;27.24;26.42;99562.88;5079816;28;900;-34
2023/04/04 08:15:45;;;;;;;;;;;;;;;28.03;25.57;99558.38;5079971;28;1079;-34
2023/04/04 08:18:11;;;;;;;;;;;;;;;27.27;26.81;99562.44;5071351;28;1281;-31
2023/04/04 08:20:37;;;;;;;;;;;;;;;27.72;26.46;99558.94;5063400;28;1059;-33
2023/04/04 08:23:03;;;;;;;;;;;;;;;27.33;26.94;99555.34;5068938;28;1910;-35
2023/04/04 08:25:29;;;;;;;;;;;;;;;27.15;27.40;99562.25;5066460;28;1095;-35
2023/04/04 08:27:55;;;;;;;;;;;;;;;27.14;27.61;99588.41;5073939;28;1246;-31
2023/04/04 08:30:20;;;;;;;;;;;;;;;27.07;27.81;99586.78;5059572;28;1274;-29
2023/04/04 08:32:47;;;;;;;;;;;;;;;27.03;28.43;99586.38;5059335;28;1151;-30
2023/04/04 08:35:13;;;;;;;;;;;;;;;26.74;27.96;99583.88;5078043;28;1083;-28
2023/04/04 08:37:43;;;;;;;;;;;;;;;26.94;28.17;99593.00;5065454;28;1082;-33
2023/04/04 08:40:09;;;;;;;;;;;;;;;26.99;28.19;99585.94;5058395;28;1088;-29
2023/04/04 08:42:35;;;;;;;;;;;;;;;27.39;27.75;99590.41;5073363;28;1983;-31
2023/04/04 08:45:02;;;;;;;;;;;;;;;28.16;26.38;99589.88;5078870;28;1070;-29
2023/04/04 08:47:29;;;;;;;;;;;;;;;27.62;26.90;99582.88;5076912;28;1102;-31
2023/04/04 08:49:55;;;;;;;;;;;;;;;26.69;28.34;99596.34;5049517;28;1123;-28
2023/04/04 08:52:22;;;;;;;;;;;;;;;27.28;27.62;99601.06;5060833;28;1027;-35
2023/04/04 08:54:48;;;;;;;;;;;;;;;26.72;28.33;99598.63;5078864;28;1193;-28
2023/04/04 08:57:14;;;;;;;;;;;;;;;27.00;27.89;99606.50;5079057;28;1075;-31
2023/04/04 08:59:39;;;;;;;;;;;;;;;27.02;28.02;99601.75;5060510;28;1074;-30
2023/04/04 09:02:08;;;;;;;;;;;;;;;27.13;27.81;99599.44;5078652;28;1205;-29
2023/04/04 09:04:33;;;;;;;;;;;;;;;27.26;27.80;99595.88;5078713;28;1909;-32
2023/04/04 09:06:59;;;;;;;;;;;;;;;28.23;26.56;99591.47;5078600;28;1154;-28
2023/04/04 09:09:25;;;;;;;;;;;;;;;27.41;27.67;99600.19;5078479;28;1175;-27
2023/04/04 09:11:50;;;;;;;;;;;;;;;27.84;26.58;99596.09;5060547;28;1015;-28
2023/04/04 09:14:17;;;;;;;;;;;;;;;27.29;27.13;99608.97;5065545;28;1228;-27
2023/04/04 09:16:42;;;;;;;;;;;;;;;26.64;28.79;99610.47;5060752;28;1070;-30
2023/04/04 09:19:08;;;;;;;;;;;;;;;26.83;28.27;99610.66;5078403;28;1146;-28
2023/04/04 09:21:33;;;;;;;;;;;;;;;27.19;28.00;99617.50;5078295;28;1081;-33
2023/04/04 09:23:59;;;;;;;;;;;;;;;27.09;28.15;99611.72;5074250;28;1906;-28
2023/04/04 09:26:26;;;;;;;;;;;;;;;27.12;28.06;99614.81;5058512;28;1131;-32
2023/04/04 09:28:51;;;;;;;;;;;;;;;27.22;27.97;99619.78;5075333;28;1404;-31
2023/04/04 09:31:17;;;;;;;;;;;;;;;27.42;28.39;99620.75;5073672;28;1060;-29
2023/04/04 09:33:42;;;;;;;;;;;;;;;28.21;27.75;99611.69;5043492;28;1025;-33
2023/04/04 09:36:10;;;;;;;;;;;;;;;27.59;27.91;99613.00;5068177;28;912;-31
2023/04/04 09:38:36;;;;;;;;;;;;;;;27.18;27.79;99615.81;5074718;28;1142;-30
2023/04/04 09:41:02;;;;;;;;;;;;;;;28.22;27.69;99621.44;5069578;28;1253;-26
2023/04/04 09:43:29;;;;;;;;;;;;;;;27.58;26.86;99614.03;5055844;28;1977;-29
2023/04/04 09:45:55;;;;;;;;;;;;;;;27.32;27.78;99615.81;5051708;28;1401;-30
2023/04/04 09:48:31;;;;;;;;;;;;;;;27.39;27.92;99627.41;5048335;28;1090;-29
2023/04/04 09:50:59;;;;;;;;;;;;;;;27.39;28.00;99625.53;5078242;28;1233;-31
2023/04/04 09:53:25;;;;;;;;;;;;;;;27.17;28.59;99629.53;5077601;28;1197;-41
2023/04/04 09:59:47;;;;;;;;;;;;;;;27.40;28.22;99604.75;5096175;27;1325;-18
2023/04/04 10:02:13;;;;;;;;;;;;;;;27.57;28.22;99607.81;5093398;28;1153;-18
2023/04/04 10:04:38;;;;;;;;;;;;;;;27.60;27.69;99610.09;5093281;28;975;-18
2023/04/04 10:07:05;;;;;;;;;;;;;;;27.21;27.70;99601.91;5082169;28;1302;-17
2023/04/04 10:09:31;;;;;;;;;;;;;;;27.06;28.78;99610.25;5093235;28;1103;-17
2023/04/04 10:12:09;;;;;;;;;;;;;;;26.83;29.22;99610.66;5084066;28;1599;-17
2023/04/04 10:14:35;;;;;;;;;;;;;;;27.00;28.86;99611.06;5092189;28;1084;-17
2023/04/04 10:17:05;;;;;;;;;;;;;;;27.70;27.51;99611.53;5087498;28;1035;-16
2023/04/04 10:19:30;;;;;;;;;;;;;;;27.60;27.06;99606.56;5093804;28;1906;-18
2023/04/04 10:21:56;;;;;;;;;;;;;;;27.43;27.39;99614.28;5091858;28;1170;-17
2023/04/04 10:24:22;;;;;;;;;;;;;;;27.24;27.75;99619.56;5093029;28;1039;-44
2023/04/04 10:26:47;;;;;;;;;;;;;;;27.66;27.65;99619.19;5093128;28;1145;-48
2023/04/04 10:29:13;;;;;;;;;;;;;;;27.36;27.59;99614.34;5093444;28;1121;-49
2023/04/04 10:31:39;;;;;;;;;;;;;;;27.67;27.98;99611.94;5093104;28;1110;-46
2023/04/04 10:34:06;;;;;;;;;;;;;;;27.66;28.12;99611.09;5091333;28;1102;-48
2023/04/04 10:36:45;;;;;;;;;;;;;;;27.58;27.65;99616.75;5092263;28;1169;-43
2023/04/04 10:39:10;;;;;;;;;;;;;;;27.58;27.91;99616.75;5093057;28;1972;-47
2023/04/04 10:41:36;;;;;;;;;;;;;;;27.41;27.49;99616.41;5092908;28;1077;-51
2023/04/04 10:44:06;;;;;;;;;;;;;;;27.20;28.77;99621.00;5092799;28;1213;-48
2023/04/04 10:46:32;;;;;;;;;;;;;;;27.25;28.58;99621.22;5093379;28;1170;-39
2023/04/04 10:48:59;;;;;;;;;;;;;;;26.98;28.96;99616.66;5091041;28;1036;-45
2023/04/04 10:51:25;;;;;;;;;;;;;;;26.96;28.93;99616.03;5091743;28;1063;-49
2023/04/04 10:53:51;;;;;;;;;;;;;;;26.99;29.27;99615.63;5091899;28;991;-48
2023/04/04 10:56:17;;;;;;;;;;;;;;;27.23;28.96;99612.50;5092450;28;1146;-42
2023/04/04 10:58:43;;;;;;;;;;;;;;;27.28;28.56;99617.28;5103734;28;1976;-42
2023/04/04 11:01:08;;;;;;;;;;;;;;;27.46;28.78;99624.69;5110844;28;1128;-42
2023/04/04 11:03:52;;;;;;;;;;;;;;;27.63;28.40;99627.75;5112769;28;1253;-46
2023/04/04 11:06:18;;;;;;;;;;;;;;;27.68;28.02;99618.97;5113037;28;1070;-44
2023/04/04 11:08:44;;;;;;;;;;;;;;;27.73;27.98;99611.94;5112625;28;1073;-40
2023/04/04 11:11:11;;;;;;;;;;;;;;;27.43;28.44;99611.59;5081241;28;1239;-43
2023/04/04 11:13:38;;;;;;;;;;;;;;;27.49;28.89;99611.56;5080996;28;1297;-48
2023/04/04 11:16:06;;;;;;;;;;;;;;;27.63;28.57;99612.38;5099204;28;1194;-40
2023/04/04 11:18:32;;;;;;;;;;;;;;;27.40;28.97;99612.88;5098556;28;1901;-41
2023/04/04 11:21:00;;;;;;;;;;;;;;;27.29;29.08;99608.13;5099050;28;995;-41
2023/04/04 11:23:27;;;;;;;;;;;;;;;26.98;29.47;99605.88;5098746;28;1133;-44
2023/04/04 11:25:53;;;;;;;;;;;;;;;27.32;28.95;99608.53;5098914;28;1096;-41
2023/04/04 11:28:34;;;;;;;;;;;;;;;27.54;28.95;99604.72;5098986;28;1027;-42
2023/04/04 11:31:19;;;;;;;;;;;;;;;27.38;28.50;99596.03;5098501;28;1047;-44
2023/04/04 11:33:56;;;;;;;;;;;;;;;27.30;29.33;99607.06;5098587;28;1051;-42
2023/04/04 11:36:34;;;;;;;;;;;;;;;27.14;29.52;99610.00;5098326;28;1086;-41
2023/04/04 11:39:03;;;;;;;;;;;;;;;27.62;28.38;99612.59;5097955;28;1979;-43
2023/04/04 11:41:47;;;;;;;;;;;;;;;27.60;28.63;99607.41;5081705;28;1108;-42
2023/04/04 11:44:13;;;;;;;;;;;;;;;27.37;29.25;99607.91;5078594;28;1210;-41
2023/04/04 11:46:39;;;;;;;;;;;;;;;26.93;29.66;99602.97;5077558;28;1234;-40
2023/04/04 11:49:05;;;;;;;;;;;;;;;26.70;30.57;99598.00;5079281;28;1281;-41
2023/04/04 11:51:30;;;;;;;;;;;;;;;26.63;30.50;99598.00;5092103;28;1689;-41
2023/04/04 11:53:56;;;;;;;;;;;;;;;26.86;28.94;99602.16;5071308;28;1662;-41
2023/04/04 11:56:22;;;;;;;;;;;;;;;26.99;28.92;99604.81;5089063;28;1348;-40
2023/04/04 11:58:48;;;;;;;;;;;;;;;27.24;28.91;99600.66;5081412;28;1909;-40
2023/04/04 12:01:13;;;;;;;;;;;;;;;28.01;27.55;99590.19;5074861;28;1183;-40
2023/04/04 12:03:39;;;;;;;;;;;;;;;27.48;27.72;99588.31;5079921;28;1094;-42
2023/04/04 12:06:05;;;;;;;;;;;;;;;26.98;28.69;99586.13;5098543;28;1309;-41
2023/04/04 12:08:30;;;;;;;;;;;;;;;27.97;26.65;99589.78;5080332;28;1078;-39
2023/04/04 12:10:56;;;;;;;;;;;;;;;27.64;27.56;99588.91;5097996;28;1115;-42
2023/04/04 12:13:24;;;;;;;;;;;;;;;27.01;28.64;99597.38;5079632;28;1024;-41
2023/04/04 12:15:49;;;;;;;;;;;;;;;27.68;27.74;99598.25;5087044;28;1173;-41
2023/04/04 12:18:21;;;;;;;;;;;;;;;27.89;27.03;99590.88;5101753;28;1977;-42
2023/04/04 12:20:47;;;;;;;;;;;;;;;26.99;27.45;99588.63;5096536;28;1246;-41
2023/04/04 12:23:13;;;;;;;;;;;;;;;26.33;28.77;99595.72;5096960;28;1198;-41
2023/04/04 12:25:43;;;;;;;;;;;;;;;27.56;27.17;99594.53;5097281;28;1218;-40
2023/04/04 12:28:09;;;;;;;;;;;;;;;27.90;26.38;99583.56;5096788;28;1046;-43
2023/04/04 12:30:35;;;;;;;;;;;;;;;26.71;27.84;99586.19;5099058;28;989;-41
2023/04/04 12:33:01;;;;;;;;;;;;;;;27.04;27.48;99579.97;5090083;28;989;-42
2023/04/04 12:35:26;;;;;;;;;;;;;;;27.39;26.86;99585.03;5081026;28;1125;-43
2023/04/04 12:38:14;;;;;;;;;;;;;;;27.57;26.88;99582.69;5079431;28;1909;-42
2023/04/04 12:40:40;;;;;;;;;;;;;;;26.94;27.76;99572.25;5089799;28;1099;-37
2023/04/04 12:43:07;;;;;;;;;;;;;;;27.25;27.49;99570.75;5078912;28;1178;-42
2023/04/04 12:45:36;;;;;;;;;;;;;;;27.85;26.89;99568.84;5096934;28;1019;-41
2023/04/04 12:48:02;;;;;;;;;;;;;;;27.05;27.74;99567.28;5097011;28;1197;-42
2023/04/04 12:50:27;;;;;;;;;;;;;;;27.00;27.93;99573.28;5078199;28;1355;-41
2023/04/04 12:52:53;;;;;;;;;;;;;;;27.55;27.96;99572.09;5096962;28;1249;-42
2023/04/04 12:55:20;;;;;;;;;;;;;;;27.93;27.23;99567.75;5093088;28;1348;-36
2023/04/04 12:57:46;;;;;;;;;;;;;;;27.30;27.67;99555.78;5095745;28;1914;-42
2023/04/04 13:00:12;;;;;;;;;;;;;;;26.93;28.54;99551.69;5109503;28;1147;-18